Time;durP1;ratioP1;P1;durP2;ratioP2;P2;SDS_P1;SDS_P2;PMS_P1;PMS_P2;Temp;Humidity;BMP_temperature;BMP_pressure;BME280_temperature;BME280_humidity;BME280_pressure;Samples;Min_cycle;Max_cycle;Signal;HPM_P1;HPM_P2
2023/09/07 00:13:52;;;;;;;17.10;6.88;;;;;;;22.74;70.24;100665.38;31382497;28;20526;-77
2023/09/07 00:28:54;;;;;;;16.80;7.60;;;;;;;22.73;72.63;100663.09;31375805;28;20585;-77
2023/09/07 00:43:56;;;;;;;16.45;7.80;;;;;;;22.64;73.60;100652.19;31392292;28;20049;-76
2023/09/07 00:59:00;;;;;;;16.25;7.63;;;;;;;22.70;75.01;100664.06;31363089;28;20071;-76
2023/09/07 01:14:03;;;;;;;15.20;9.00;;;;;;;22.70;76.26;100653.75;31361186;28;20059;-76
2023/09/07 01:29:08;;;;;;;18.40;7.30;;;;;;;22.54;78.66;100650.81;31380084;28;20052;-77
2023/09/07 01:44:10;;;;;;;12.90;7.20;;;;;;;22.51;81.15;100641.50;31390711;28;20303;-77
2023/09/07 01:59:12;;;;;;;18.08;6.53;;;;;;;22.41;83.51;100640.16;31412478;28;20111;-75
2023/09/07 02:14:15;;;;;;;15.75;5.97;;;;;;;22.19;86.45;100620.53;31378209;28;20048;-75
2023/09/07 02:29:17;;;;;;;17.37;5.77;;;;;;;22.16;87.53;100627.03;31391376;28;20079;-77
2023/09/07 02:44:20;;;;;;;14.27;5.82;;;;;;;22.07;88.37;100627.94;31416095;28;20716;-77
2023/09/07 02:59:22;;;;;;;16.45;6.65;;;;;;;22.04;88.98;100626.91;31396515;28;20045;-77
2023/09/07 03:14:24;;;;;;;16.35;8.25;;;;;;;22.07;89.94;100634.22;31382878;28;20049;-75
2023/09/07 03:29:26;;;;;;;27.10;12.48;;;;;;;22.07;91.39;100628.69;31386524;28;20546;-77
2023/09/07 03:44:28;;;;;;;31.02;14.85;;;;;;;22.25;92.78;100640.69;31385613;28;20493;-76
2023/09/07 03:59:30;;;;;;;26.90;13.25;;;;;;;22.52;93.71;100645.78;31388333;28;20110;-77
2023/09/07 04:14:32;;;;;;;36.83;10.90;;;;;;;22.77;94.00;100658.88;31381796;28;20048;-78
2023/09/07 04:29:34;;;;;;;15.80;7.82;;;;;;;23.11;93.50;100653.66;31384633;28;20048;-78
2023/09/07 04:44:36;;;;;;;15.93;6.97;;;;;;;23.74;90.48;100664.66;31374853;28;20060;-76
2023/09/07 04:59:38;;;;;;;13.90;6.80;;;;;;;24.53;85.64;100683.16;31379924;28;20076;-77
2023/09/07 05:14:41;;;;;;;13.65;6.20;;;;;;;25.26;81.81;100692.34;31400009;28;20048;-76
2023/09/07 05:29:43;;;;;;;18.65;7.45;;;;;;;26.12;78.05;100692.41;31402882;28;20080;-77
2023/09/07 05:44:45;;;;;;;21.23;7.15;;;;;;;27.10;74.14;100704.78;31394481;28;20073;-77
2023/09/07 05:59:47;;;;;;;19.27;6.50;;;;;;;28.04;68.43;100707.94;31384748;28;20445;-77
2023/09/07 06:14:49;;;;;;;12.37;6.37;;;;;;;29.33;63.19;100716.00;31387107;28;20076;-78
2023/09/07 06:29:52;;;;;;;17.27;6.70;;;;;;;30.63;58.50;100721.38;31399719;28;20402;-77
2023/09/07 06:44:54;;;;;;;7.25;5.22;;;;;;;31.51;56.30;100716.97;31378991;28;20076;-75
2023/09/07 06:59:56;;;;;;;21.30;6.63;;;;;;;32.19;54.15;100711.75;31416646;28;20513;-78
2023/09/07 07:14:59;;;;;;;9.40;3.72;;;;;;;32.92;50.43;100706.00;31417902;28;20107;-78
2023/09/07 07:30:01;;;;;;;12.52;5.40;;;;;;;33.87;48.59;100701.47;31408772;28;20383;-78
2023/09/07 07:45:04;;;;;;;10.82;4.00;;;;;;;33.94;46.78;100697.13;31382401;28;20047;-76
2023/09/07 08:00:06;;;;;;;12.07;3.85;;;;;;;32.14;47.22;100686.63;31371053;28;20106;-75
2023/09/07 08:15:09;;;;;;;9.90;4.80;;;;;;;31.89;48.64;100686.34;31384037;28;20083;-79
2023/09/07 08:45:57;;;;;;;12.63;2.72;;;;;;;32.71;47.07;100687.22;31006452;23;20032;-90
2023/09/07 09:01:01;;;;;;;5.68;2.65;;;;;;;33.70;44.63;100686.47;30738446;29;20052;-86
2023/09/07 09:32:56;;;;;;;3.07;2.13;;;;;;;34.56;41.19;100689.91;30770472;23;20122;-84
2023/09/07 09:48:00;;;;;;;4.72;2.47;;;;;;;35.33;39.61;100685.22;30964576;28;20073;-84
2023/09/07 10:03:07;;;;;;;12.88;3.53;;;;;;;35.81;38.70;100693.41;30909662;28;20101;-82
2023/09/07 10:18:15;;;;;;;5.70;3.13;;;;;;;36.21;38.34;100693.84;30912956;28;20069;-72
2023/09/07 10:33:21;;;;;;;6.57;2.85;;;;;;;36.31;37.93;100698.84;30890965;28;20051;-84
2023/09/07 10:48:25;;;;;;;7.22;4.38;;;;;;;36.99;37.15;100692.19;30827084;28;20047;-76
2023/09/07 11:03:28;;;;;;;12.05;3.15;;;;;;;36.84;36.46;100681.13;30822431;28;20055;-77
2023/09/07 11:18:30;;;;;;;22.65;4.28;;;;;;;35.37;37.54;100668.63;30833424;28;20075;-76
2023/09/07 11:33:33;;;;;;;7.05;1.85;;;;;;;37.30;34.79;100652.81;30833232;28;20058;-77
2023/09/07 11:48:35;;;;;;;3.53;2.03;;;;;;;35.37;35.61;100651.69;30876274;28;20050;-76
2023/09/07 12:03:37;;;;;;;7.93;2.60;;;;;;;33.18;37.92;100649.38;30879886;28;20054;-78
2023/09/07 12:18:42;;;;;;;10.85;2.88;;;;;;;32.37;37.73;100661.47;30956779;28;20057;-88
2023/09/07 12:33:45;;;;;;;8.80;5.88;;;;;;;31.66;37.86;100668.59;30921043;23;20055;-84
2023/09/07 12:48:47;;;;;;;5.00;3.30;;;;;;;31.16;38.57;100660.25;30845609;28;20054;-85
2023/09/07 13:03:49;;;;;;;3.13;2.05;;;;;;;30.91;39.34;100678.69;30825997;28;20053;-82
2023/09/07 13:18:52;;;;;;;7.35;2.22;;;;;;;30.67;38.85;100679.03;30817825;28;20047;-83
2023/09/07 13:33:54;;;;;;;5.63;2.30;;;;;;;30.47;38.36;100677.69;30846989;28;20406;-86
2023/09/07 13:48:56;;;;;;;8.93;2.75;;;;;;;30.46;37.54;100685.31;30817867;28;20062;-83
2023/09/07 14:03:59;;;;;;;5.90;2.70;;;;;;;30.21;36.99;100674.94;30838050;28;20090;-81
2023/09/07 14:35:03;;;;;;;3.85;2.00;;;;;;;29.77;37.60;100671.72;30843276;28;20051;-84
2023/09/07 14:50:06;;;;;;;3.50;1.98;;;;;;;29.39;37.65;100677.50;30858142;28;20058;-91
2023/09/07 15:05:08;;;;;;;4.10;1.52;;;;;;;29.27;37.58;100698.56;30861101;28;20123;-92
2023/09/07 15:20:11;;;;;;;4.15;2.17;;;;;;;28.93;37.14;100709.53;30851452;28;20043;-82
2023/09/07 15:35:13;;;;;;;9.90;2.30;;;;;;;28.43;37.07;100719.38;30798087;28;20061;-80
2023/09/07 15:50:15;;;;;;;;;;;;;;;28.10;36.31;100731.72;30797657;28;20050;-81
2023/09/07 16:05:17;;;;;;;3.05;1.70;;;;;;;27.87;36.46;100747.19;30810359;28;19980;-81
2023/09/07 16:20:20;;;;;;;4.45;2.00;;;;;;;27.62;36.71;100765.19;30875990;23;20142;-86
2023/09/07 16:35:22;;;;;;;10.63;2.03;;;;;;;27.27;36.16;100797.38;30823886;28;20055;-76
2023/09/07 16:50:24;;;;;;;3.73;1.87;;;;;;;27.08;36.94;100816.00;30811050;28;20105;-75
2023/09/07 17:05:26;;;;;;;6.30;1.93;;;;;;;26.65;37.35;100838.72;30824382;28;20059;-85
2023/09/07 17:20:31;;;;;;;4.57;2.27;;;;;;;26.28;37.88;100852.22;30866666;28;20082;-81
2023/09/07 17:35:36;;;;;;;3.60;1.70;;;;;;;26.07;38.18;100869.19;30838401;28;20043;-78
2023/09/07 17:50:39;;;;;;;2.38;1.23;;;;;;;25.82;38.25;100887.66;30812153;28;20068;-76
2023/09/07 18:05:41;;;;;;;3.83;1.33;;;;;;;25.66;38.34;100891.22;30823353;28;20055;-74
2023/09/07 18:20:46;;;;;;;3.08;1.85;;;;;;;25.19;37.82;100909.53;30823505;28;20058;-75
2023/09/07 18:36:08;;;;;;;4.97;1.17;;;;;;;24.79;37.29;100921.72;30801173;28;20626;-74
2023/09/07 18:51:12;;;;;;;3.87;2.13;;;;;;;24.67;37.31;100932.00;30818655;28;20083;-77
2023/09/07 19:06:14;;;;;;;10.43;1.67;;;;;;;24.38;38.00;100937.84;30792257;28;20055;-77
2023/09/07 19:21:17;;;;;;;5.13;2.10;;;;;;;24.13;38.93;100940.16;30815483;28;20106;-77
2023/09/07 19:36:26;;;;;;;7.32;2.95;;;;;;;23.90;40.29;100944.00;30791894;28;20043;-74
2023/09/07 19:51:29;;;;;;;8.70;3.47;;;;;;;23.67;40.19;100947.81;30817538;28;20098;-78
2023/09/07 20:06:31;;;;;;;3.03;1.42;;;;;;;23.38;40.21;100952.28;30819332;28;20335;-76
2023/09/07 20:21:33;;;;;;;4.20;1.63;;;;;;;23.21;40.45;100948.53;30816905;28;20114;-76
2023/09/07 20:36:43;;;;;;;8.15;2.00;;;;;;;22.92;40.72;100940.34;30806825;28;20066;-80
2023/09/07 20:51:48;;;;;;;4.57;1.30;;;;;;;22.82;40.63;100953.59;30803311;28;20139;-79
2023/09/07 21:06:50;;;;;;;12.25;2.15;;;;;;;22.64;41.20;100959.34;30801781;28;20129;-82
2023/09/07 21:21:53;;;;;;;11.98;2.17;;;;;;;22.43;41.57;100966.84;30765803;28;20046;-81
2023/09/07 21:36:55;;;;;;;3.25;1.42;;;;;;;22.16;42.62;100964.38;30750493;28;20047;-79
2023/09/07 21:51:57;;;;;;;3.90;1.30;;;;;;;21.88;42.68;100967.38;30730672;28;20070;-79
2023/09/07 22:06:59;;;;;;;3.65;1.35;;;;;;;21.56;43.42;100971.81;30759673;28;20042;-80
2023/09/07 22:22:02;;;;;;;2.85;1.48;;;;;;;21.51;43.48;100993.78;30810134;28;20145;-80
2023/09/07 22:37:05;;;;;;;3.55;1.67;;;;;;;21.37;43.57;100990.53;30813486;28;20059;-81
2023/09/07 22:52:07;;;;;;;4.57;1.60;;;;;;;21.23;43.90;100969.16;30802139;28;20061;-80
2023/09/07 23:07:09;;;;;;;5.35;1.38;;;;;;;21.07;44.33;100980.56;30807989;28;20493;-81
2023/09/07 23:22:11;;;;;;;3.38;1.65;;;;;;;20.98;45.17;100986.16;30791227;28;20055;-78
2023/09/07 23:37:13;;;;;;;5.00;1.95;;;;;;;20.89;45.42;101000.00;30795925;28;20138;-80
2023/09/07 23:52:15;;;;;;;6.03;1.67;;;;;;;20.62;46.53;101004.41;30808757;28;20043;-80
